sensor_id;sensor_type;location;lat;lon;timestamp;temperature;humidity
37806;DHT22;25082;50.870;0.022;2024-01-15T00:02:00;18.40;55.90
37806;DHT22;25082;50.870;0.022;2024-01-15T00:04:26;18.40;55.60
37806;DHT22;25082;50.870;0.022;2024-01-15T00:06:52;18.40;55.60
37806;DHT22;25082;50.870;0.022;2024-01-15T00:09:17;18.30;55.60
37806;DHT22;25082;50.870;0.022;2024-01-15T00:11:43;18.30;55.60
37806;DHT22;25082;50.870;0.022;2024-01-15T00:14:09;18.30;55.50
37806;DHT22;25082;50.870;0.022;2024-01-15T00:16:35;18.30;55.50
37806;DHT22;25082;50.870;0.022;2024-01-15T00:19:00;18.30;55.40
37806;DHT22;25082;50.870;0.022;2024-01-15T00:21:26;18.30;55.40
37806;DHT22;25082;50.870;0.022;2024-01-15T00:23:53;18.30;55.40
37806;DHT22;25082;50.870;0.022;2024-01-15T00:26:19;18.30;55.40
37806;DHT22;25082;50.870;0.022;2024-01-15T00:28:45;18.20;55.20
37806;DHT22;25082;50.870;0.022;2024-01-15T00:31:10;18.20;55.30
37806;DHT22;25082;50.870;0.022;2024-01-15T00:33:36;18.20;55.20
37806;DHT22;25082;50.870;0.022;2024-01-15T00:36:02;18.20;55.20
37806;DHT22;25082;50.870;0.022;2024-01-15T00:38:28;18.20;55.20
37806;DHT22;25082;50.870;0.022;2024-01-15T00:40:54;18.10;55.20
37806;DHT22;25082;50.870;0.022;2024-01-15T00:43:20;18.10;55.10
37806;DHT22;25082;50.870;0.022;2024-01-15T00:45:46;18.10;55.20
37806;DHT22;25082;50.870;0.022;2024-01-15T00:48:12;18.10;55.10
37806;DHT22;25082;50.870;0.022;2024-01-15T00:50:38;18.10;55.20
37806;DHT22;25082;50.870;0.022;2024-01-15T00:53:04;18.10;55.70
37806;DHT22;25082;50.870;0.022;2024-01-15T00:55:29;18.10;55.20
37806;DHT22;25082;50.870;0.022;2024-01-15T00:57:55;18.10;55.10
37806;DHT22;25082;50.870;0.022;2024-01-15T01:00:21;18.00;55.00
37806;DHT22;25082;50.870;0.022;2024-01-15T01:02:47;18.00;55.10
37806;DHT22;25082;50.870;0.022;2024-01-15T01:05:13;18.00;55.00
37806;DHT22;25082;50.870;0.022;2024-01-15T01:07:38;18.00;55.10
37806;DHT22;25082;50.870;0.022;2024-01-15T01:10:04;18.00;55.10
37806;DHT22;25082;50.870;0.022;2024-01-15T01:12:30;18.00;55.10
37806;DHT22;25082;50.870;0.022;2024-01-15T01:14:56;18.00;55.00
37806;DHT22;25082;50.870;0.022;2024-01-15T01:17:22;17.90;55.00
37806;DHT22;25082;50.870;0.022;2024-01-15T01:19:49;17.90;55.00
37806;DHT22;25082;50.870;0.022;2024-01-15T01:22:15;17.90;55.00
37806;DHT22;25082;50.870;0.022;2024-01-15T01:24:40;17.90;55.00
37806;DHT22;25082;50.870;0.022;2024-01-15T01:27:06;17.90;55.00
37806;DHT22;25082;50.870;0.022;2024-01-15T01:29:32;17.90;54.90
37806;DHT22;25082;50.870;0.022;2024-01-15T01:31:58;17.90;55.00
37806;DHT22;25082;50.870;0.022;2024-01-15T01:34:24;17.90;55.50
37806;DHT22;25082;50.870;0.022;2024-01-15T01:36:50;17.80;54.90
37806;DHT22;25082;50.870;0.022;2024-01-15T01:39:15;17.80;54.80
37806;DHT22;25082;50.870;0.022;2024-01-15T01:41:41;17.80;54.80
37806;DHT22;25082;50.870;0.022;2024-01-15T01:44:07;17.80;54.80
37806;DHT22;25082;50.870;0.022;2024-01-15T01:46:34;17.80;54.80
37806;DHT22;25082;50.870;0.022;2024-01-15T01:49:05;17.80;54.80
37806;DHT22;25082;50.870;0.022;2024-01-15T01:51:33;17.70;54.70
37806;DHT22;25082;50.870;0.022;2024-01-15T01:54:00;17.70;54.70
37806;DHT22;25082;50.870;0.022;2024-01-15T01:56:26;17.70;54.70
37806;DHT22;25082;50.870;0.022;2024-01-15T01:58:52;17.70;54.60
37806;DHT22;25082;50.870;0.022;2024-01-15T02:01:18;17.70;54.60
37806;DHT22;25082;50.870;0.022;2024-01-15T02:03:45;17.70;54.60
37806;DHT22;25082;50.870;0.022;2024-01-15T02:06:11;17.70;54.60
37806;DHT22;25082;50.870;0.022;2024-01-15T02:08:37;17.70;54.50
37806;DHT22;25082;50.870;0.022;2024-01-15T02:11:03;17.70;54.60
37806;DHT22;25082;50.870;0.022;2024-01-15T02:13:29;17.60;54.60
37806;DHT22;25082;50.870;0.022;2024-01-15T02:15:55;17.60;54.50
37806;DHT22;25082;50.870;0.022;2024-01-15T02:18:21;17.60;54.50
37806;DHT22;25082;50.870;0.022;2024-01-15T02:20:47;17.60;54.50
37806;DHT22;25082;50.870;0.022;2024-01-15T02:23:14;17.60;54.40
37806;DHT22;25082;50.870;0.022;2024-01-15T02:25:42;17.50;54.30
37806;DHT22;25082;50.870;0.022;2024-01-15T02:28:10;17.60;54.30
37806;DHT22;25082;50.870;0.022;2024-01-15T02:30:38;17.50;54.90
37806;DHT22;25082;50.870;0.022;2024-01-15T02:33:05;17.50;54.30
37806;DHT22;25082;50.870;0.022;2024-01-15T02:35:31;17.50;54.30
37806;DHT22;25082;50.870;0.022;2024-01-15T02:37:56;17.50;54.30
37806;DHT22;25082;50.870;0.022;2024-01-15T02:40:22;17.50;54.30
37806;DHT22;25082;50.870;0.022;2024-01-15T02:42:48;17.50;54.30
37806;DHT22;25082;50.870;0.022;2024-01-15T02:45:14;17.40;54.30
37806;DHT22;25082;50.870;0.022;2024-01-15T02:47:39;17.40;54.30
37806;DHT22;25082;50.870;0.022;2024-01-15T02:50:06;17.40;54.20
37806;DHT22;25082;50.870;0.022;2024-01-15T02:52:32;17.40;54.20
37806;DHT22;25082;50.870;0.022;2024-01-15T02:54:57;17.40;54.20
37806;DHT22;25082;50.870;0.022;2024-01-15T02:57:23;17.40;54.20
37806;DHT22;25082;50.870;0.022;2024-01-15T02:59:49;17.40;54.20
37806;DHT22;25082;50.870;0.022;2024-01-15T03:02:15;17.40;54.20
37806;DHT22;25082;50.870;0.022;2024-01-15T03:04:44;17.40;54.10
37806;DHT22;25082;50.870;0.022;2024-01-15T03:07:10;17.30;54.10
37806;DHT22;25082;50.870;0.022;2024-01-15T03:09:36;17.30;54.10
37806;DHT22;25082;50.870;0.022;2024-01-15T03:12:02;17.30;54.10
37806;DHT22;25082;50.870;0.022;2024-01-15T03:14:28;17.30;54.10
37806;DHT22;25082;50.870;0.022;2024-01-15T03:16:53;17.30;54.00
37806;DHT22;25082;50.870;0.022;2024-01-15T03:19:19;17.30;54.00
37806;DHT22;25082;50.870;0.022;2024-01-15T03:21:45;17.30;53.90
37806;DHT22;25082;50.870;0.022;2024-01-15T03:24:11;17.30;54.00
37806;DHT22;25082;50.870;0.022;2024-01-15T03:26:36;17.20;53.90
37806;DHT22;25082;50.870;0.022;2024-01-15T03:29:02;17.20;53.90
37806;DHT22;25082;50.870;0.022;2024-01-15T03:31:28;17.20;53.90
37806;DHT22;25082;50.870;0.022;2024-01-15T03:33:54;17.20;53.90
37806;DHT22;25082;50.870;0.022;2024-01-15T03:36:20;17.20;53.90
37806;DHT22;25082;50.870;0.022;2024-01-15T03:38:45;17.20;53.90
37806;DHT22;25082;50.870;0.022;2024-01-15T03:41:11;17.20;53.90
37806;DHT22;25082;50.870;0.022;2024-01-15T03:43:37;17.10;53.80
37806;DHT22;25082;50.870;0.022;2024-01-15T03:46:03;17.10;53.80
37806;DHT22;25082;50.870;0.022;2024-01-15T03:48:30;17.10;53.80
37806;DHT22;25082;50.870;0.022;2024-01-15T03:50:56;17.10;53.80
37806;DHT22;25082;50.870;0.022;2024-01-15T03:53:21;17.10;53.80
37806;DHT22;25082;50.870;0.022;2024-01-15T03:55:47;17.10;53.80
37806;DHT22;25082;50.870;0.022;2024-01-15T03:58:13;17.10;53.70
37806;DHT22;25082;50.870;0.022;2024-01-15T04:00:40;17.10;53.70
37806;DHT22;25082;50.870;0.022;2024-01-15T04:03:06;17.10;53.70
37806;DHT22;25082;50.870;0.022;2024-01-15T04:05:32;17.00;53.60
37806;DHT22;25082;50.870;0.022;2024-01-15T04:07:58;17.00;53.70
37806;DHT22;25082;50.870;0.022;2024-01-15T04:10:23;17.00;53.60
37806;DHT22;25082;50.870;0.022;2024-01-15T04:12:49;17.00;53.60
37806;DHT22;25082;50.870;0.022;2024-01-15T04:15:15;17.00;53.60
37806;DHT22;25082;50.870;0.022;2024-01-15T04:17:41;17.00;53.60
37806;DHT22;25082;50.870;0.022;2024-01-15T04:20:07;17.00;53.60
37806;DHT22;25082;50.870;0.022;2024-01-15T04:22:34;17.00;53.60
37806;DHT22;25082;50.870;0.022;2024-01-15T04:25:00;17.00;53.60
37806;DHT22;25082;50.870;0.022;2024-01-15T04:27:26;16.90;53.60
37806;DHT22;25082;50.870;0.022;2024-01-15T04:29:52;16.90;53.60
37806;DHT22;25082;50.870;0.022;2024-01-15T04:32:18;16.90;53.60
37806;DHT22;25082;50.870;0.022;2024-01-15T04:34:44;16.90;53.50
37806;DHT22;25082;50.870;0.022;2024-01-15T04:37:10;16.90;53.50
37806;DHT22;25082;50.870;0.022;2024-01-15T04:39:35;16.90;53.60
37806;DHT22;25082;50.870;0.022;2024-01-15T04:42:01;16.90;53.50
37806;DHT22;25082;50.870;0.022;2024-01-15T04:44:28;16.90;53.50
37806;DHT22;25082;50.870;0.022;2024-01-15T04:46:54;16.90;53.50
37806;DHT22;25082;50.870;0.022;2024-01-15T04:49:20;16.80;53.50
37806;DHT22;25082;50.870;0.022;2024-01-15T04:51:46;16.80;53.40
37806;DHT22;25082;50.870;0.022;2024-01-15T04:54:12;16.80;53.50
37806;DHT22;25082;50.870;0.022;2024-01-15T04:56:38;16.80;53.40
37806;DHT22;25082;50.870;0.022;2024-01-15T04:59:04;16.80;53.40
37806;DHT22;25082;50.870;0.022;2024-01-15T05:01:32;16.80;53.40
37806;DHT22;25082;50.870;0.022;2024-01-15T05:03:58;16.80;53.40
37806;DHT22;25082;50.870;0.022;2024-01-15T05:06:24;16.70;53.40
37806;DHT22;25082;50.870;0.022;2024-01-15T05:08:50;16.80;53.40
37806;DHT22;25082;50.870;0.022;2024-01-15T05:11:16;16.70;53.40
37806;DHT22;25082;50.870;0.022;2024-01-15T05:13:42;16.70;53.40
37806;DHT22;25082;50.870;0.022;2024-01-15T05:16:07;16.70;53.30
37806;DHT22;25082;50.870;0.022;2024-01-15T05:18:33;16.70;53.40
37806;DHT22;25082;50.870;0.022;2024-01-15T05:20:59;16.70;53.30
37806;DHT22;25082;50.870;0.022;2024-01-15T05:23:25;16.60;53.20
37806;DHT22;25082;50.870;0.022;2024-01-15T05:25:51;16.70;53.30
37806;DHT22;25082;50.870;0.022;2024-01-15T05:28:16;16.60;53.30
37806;DHT22;25082;50.870;0.022;2024-01-15T05:30:42;16.60;53.30
37806;DHT22;25082;50.870;0.022;2024-01-15T05:33:08;16.60;53.30
37806;DHT22;25082;50.870;0.022;2024-01-15T05:35:34;16.60;53.30
37806;DHT22;25082;50.870;0.022;2024-01-15T05:38:00;16.60;53.20
37806;DHT22;25082;50.870;0.022;2024-01-15T05:40:26;16.60;53.30
37806;DHT22;25082;50.870;0.022;2024-01-15T05:42:52;16.60;53.20
37806;DHT22;25082;50.870;0.022;2024-01-15T05:45:18;16.60;53.20
37806;DHT22;25082;50.870;0.022;2024-01-15T05:47:43;16.50;53.20
37806;DHT22;25082;50.870;0.022;2024-01-15T05:50:09;16.50;53.20
37806;DHT22;25082;50.870;0.022;2024-01-15T05:52:36;16.50;53.20
37806;DHT22;25082;50.870;0.022;2024-01-15T05:55:02;16.50;53.20
37806;DHT22;25082;50.870;0.022;2024-01-15T05:57:28;16.50;53.20
37806;DHT22;25082;50.870;0.022;2024-01-15T05:59:53;16.50;53.20
37806;DHT22;25082;50.870;0.022;2024-01-15T06:02:19;16.50;53.20
37806;DHT22;25082;50.870;0.022;2024-01-15T06:04:45;16.50;53.20
37806;DHT22;25082;50.870;0.022;2024-01-15T06:07:11;16.40;53.20
37806;DHT22;25082;50.870;0.022;2024-01-15T06:09:37;16.40;53.20
37806;DHT22;25082;50.870;0.022;2024-01-15T06:12:04;16.40;53.20
37806;DHT22;25082;50.870;0.022;2024-01-15T06:14:30;16.40;53.20
37806;DHT22;25082;50.870;0.022;2024-01-15T06:16:56;16.40;53.10
37806;DHT22;25082;50.870;0.022;2024-01-15T06:19:22;16.40;53.20
37806;DHT22;25082;50.870;0.022;2024-01-15T06:21:47;16.40;53.10
37806;DHT22;25082;50.870;0.022;2024-01-15T06:24:13;16.40;53.20
37806;DHT22;25082;50.870;0.022;2024-01-15T06:26:40;16.40;53.20
37806;DHT22;25082;50.870;0.022;2024-01-15T06:29:06;16.40;53.30
37806;DHT22;25082;50.870;0.022;2024-01-15T06:31:32;16.40;53.30
37806;DHT22;25082;50.870;0.022;2024-01-15T06:33:58;16.40;53.10
37806;DHT22;25082;50.870;0.022;2024-01-15T06:36:24;16.40;53.00
37806;DHT22;25082;50.870;0.022;2024-01-15T06:38:49;16.40;52.90
37806;DHT22;25082;50.870;0.022;2024-01-15T06:41:15;16.40;52.90
37806;DHT22;25082;50.870;0.022;2024-01-15T06:43:41;16.40;52.80
37806;DHT22;25082;50.870;0.022;2024-01-15T06:46:06;16.40;52.80
37806;DHT22;25082;50.870;0.022;2024-01-15T06:48:32;16.40;52.80
37806;DHT22;25082;50.870;0.022;2024-01-15T06:50:58;16.50;52.70
37806;DHT22;25082;50.870;0.022;2024-01-15T06:53:24;16.40;52.60
37806;DHT22;25082;50.870;0.022;2024-01-15T06:55:50;16.40;52.70
37806;DHT22;25082;50.870;0.022;2024-01-15T06:58:16;16.40;52.60
37806;DHT22;25082;50.870;0.022;2024-01-15T07:00:42;16.40;52.60
37806;DHT22;25082;50.870;0.022;2024-01-15T07:03:08;16.40;52.70
37806;DHT22;25082;50.870;0.022;2024-01-15T07:05:34;16.40;52.60
37806;DHT22;25082;50.870;0.022;2024-01-15T07:07:59;16.30;52.50
37806;DHT22;25082;50.870;0.022;2024-01-15T07:10:25;16.40;52.60
37806;DHT22;25082;50.870;0.022;2024-01-15T07:12:51;16.40;52.60
37806;DHT22;25082;50.870;0.022;2024-01-15T07:15:17;16.30;52.50
37806;DHT22;25082;50.870;0.022;2024-01-15T07:17:43;16.30;52.60
37806;DHT22;25082;50.870;0.022;2024-01-15T07:20:09;16.30;52.60
37806;DHT22;25082;50.870;0.022;2024-01-15T07:22:36;16.30;52.50
37806;DHT22;25082;50.870;0.022;2024-01-15T07:25:02;16.30;52.50
37806;DHT22;25082;50.870;0.022;2024-01-15T07:27:28;16.30;52.50
37806;DHT22;25082;50.870;0.022;2024-01-15T07:29:53;16.30;52.50
37806;DHT22;25082;50.870;0.022;2024-01-15T07:32:19;16.30;52.50
37806;DHT22;25082;50.870;0.022;2024-01-15T07:34:46;16.20;52.50
37806;DHT22;25082;50.870;0.022;2024-01-15T07:37:11;16.20;52.40
37806;DHT22;25082;50.870;0.022;2024-01-15T07:39:37;16.20;52.40
37806;DHT22;25082;50.870;0.022;2024-01-15T07:42:03;16.20;52.50
37806;DHT22;25082;50.870;0.022;2024-01-15T07:44:29;16.20;52.50
37806;DHT22;25082;50.870;0.022;2024-01-15T07:46:55;16.20;52.50
37806;DHT22;25082;50.870;0.022;2024-01-15T07:49:21;16.20;52.70
37806;DHT22;25082;50.870;0.022;2024-01-15T07:51:46;16.20;52.60
37806;DHT22;25082;50.870;0.022;2024-01-15T07:54:13;16.20;52.60
37806;DHT22;25082;50.870;0.022;2024-01-15T07:56:58;16.20;52.60
37806;DHT22;25082;50.870;0.022;2024-01-15T07:59:24;16.30;52.80
37806;DHT22;25082;50.870;0.022;2024-01-15T08:01:51;16.30;52.70
37806;DHT22;25082;50.870;0.022;2024-01-15T08:04:17;16.30;52.70
37806;DHT22;25082;50.870;0.022;2024-01-15T08:06:43;16.30;52.60
37806;DHT22;25082;50.870;0.022;2024-01-15T08:09:09;16.40;52.60
37806;DHT22;25082;50.870;0.022;2024-01-15T08:11:35;16.40;52.50
37806;DHT22;25082;50.870;0.022;2024-01-15T08:14:01;16.40;52.70
37806;DHT22;25082;50.870;0.022;2024-01-15T08:16:27;16.40;52.50
37806;DHT22;25082;50.870;0.022;2024-01-15T08:18:53;16.40;52.50
37806;DHT22;25082;50.870;0.022;2024-01-15T08:21:19;16.50;52.50
37806;DHT22;25082;50.870;0.022;2024-01-15T08:23:45;16.50;52.50
37806;DHT22;25082;50.870;0.022;2024-01-15T08:26:11;16.50;52.40
37806;DHT22;25082;50.870;0.022;2024-01-15T08:28:36;16.50;52.40
37806;DHT22;25082;50.870;0.022;2024-01-15T08:31:02;16.50;52.40
37806;DHT22;25082;50.870;0.022;2024-01-15T08:33:29;16.50;52.40
37806;DHT22;25082;50.870;0.022;2024-01-15T08:35:55;16.50;52.40
37806;DHT22;25082;50.870;0.022;2024-01-15T08:38:20;16.50;52.30
37806;DHT22;25082;50.870;0.022;2024-01-15T08:40:46;16.50;52.90
37806;DHT22;25082;50.870;0.022;2024-01-15T08:43:12;16.50;52.40
37806;DHT22;25082;50.870;0.022;2024-01-15T08:45:38;16.50;52.40
37806;DHT22;25082;50.870;0.022;2024-01-15T08:48:04;16.50;52.30
37806;DHT22;25082;50.870;0.022;2024-01-15T08:50:31;16.50;52.30
37806;DHT22;25082;50.870;0.022;2024-01-15T08:52:58;16.50;52.40
37806;DHT22;25082;50.870;0.022;2024-01-15T08:55:23;16.50;52.30
37806;DHT22;25082;50.870;0.022;2024-01-15T08:57:50;16.50;52.30
37806;DHT22;25082;50.870;0.022;2024-01-15T09:00:17;16.60;52.30
37806;DHT22;25082;50.870;0.022;2024-01-15T09:02:43;16.60;52.30
37806;DHT22;25082;50.870;0.022;2024-01-15T09:05:09;16.60;52.40
37806;DHT22;25082;50.870;0.022;2024-01-15T09:07:36;16.60;52.60
37806;DHT22;25082;50.870;0.022;2024-01-15T09:10:02;16.60;52.40
37806;DHT22;25082;50.870;0.022;2024-01-15T09:12:28;16.60;52.50
37806;DHT22;25082;50.870;0.022;2024-01-15T09:14:54;16.60;52.50
37806;DHT22;25082;50.870;0.022;2024-01-15T09:17:21;16.70;52.60
37806;DHT22;25082;50.870;0.022;2024-01-15T09:19:49;16.70;52.50
37806;DHT22;25082;50.870;0.022;2024-01-15T09:22:15;16.70;52.50
37806;DHT22;25082;50.870;0.022;2024-01-15T09:24:45;16.70;53.00
37806;DHT22;25082;50.870;0.022;2024-01-15T09:27:11;16.70;52.40
37806;DHT22;25082;50.870;0.022;2024-01-15T09:29:37;16.80;52.50
37806;DHT22;25082;50.870;0.022;2024-01-15T09:32:06;16.80;52.50
37806;DHT22;25082;50.870;0.022;2024-01-15T09:34:33;16.80;52.40
37806;DHT22;25082;50.870;0.022;2024-01-15T09:36:59;16.80;53.20
37806;DHT22;25082;50.870;0.022;2024-01-15T09:39:29;16.80;54.20
37806;DHT22;25082;50.870;0.022;2024-01-15T09:41:56;16.90;54.20
37806;DHT22;25082;50.870;0.022;2024-01-15T09:44:23;16.90;54.30
37806;DHT22;25082;50.870;0.022;2024-01-15T09:46:49;16.90;54.70
37806;DHT22;25082;50.870;0.022;2024-01-15T09:49:17;16.90;55.30
37806;DHT22;25082;50.870;0.022;2024-01-15T09:51:43;16.90;55.70
37806;DHT22;25082;50.870;0.022;2024-01-15T09:54:09;16.90;55.70
37806;DHT22;25082;50.870;0.022;2024-01-15T09:56:36;16.80;55.90
37806;DHT22;25082;50.870;0.022;2024-01-15T09:59:02;16.90;56.20
37806;DHT22;25082;50.870;0.022;2024-01-15T10:01:31;16.90;56.20
37806;DHT22;25082;50.870;0.022;2024-01-15T10:03:58;16.90;56.50
37806;DHT22;25082;50.870;0.022;2024-01-15T10:06:26;17.00;57.60
37806;DHT22;25082;50.870;0.022;2024-01-15T10:08:56;17.00;58.10
37806;DHT22;25082;50.870;0.022;2024-01-15T10:11:23;17.00;56.40
37806;DHT22;25082;50.870;0.022;2024-01-15T10:13:49;17.00;57.50
37806;DHT22;25082;50.870;0.022;2024-01-15T10:16:21;17.00;57.50
37806;DHT22;25082;50.870;0.022;2024-01-15T10:18:50;17.00;57.30
37806;DHT22;25082;50.870;0.022;2024-01-15T10:21:16;17.00;57.20
37806;DHT22;25082;50.870;0.022;2024-01-15T10:23:42;17.00;57.20
37806;DHT22;25082;50.870;0.022;2024-01-15T10:26:08;17.00;57.10
37806;DHT22;25082;50.870;0.022;2024-01-15T10:28:34;17.10;57.20
37806;DHT22;25082;50.870;0.022;2024-01-15T10:31:00;17.10;57.20
37806;DHT22;25082;50.870;0.022;2024-01-15T10:33:26;17.10;57.20
37806;DHT22;25082;50.870;0.022;2024-01-15T10:35:56;17.10;57.20
37806;DHT22;25082;50.870;0.022;2024-01-15T10:38:23;17.10;57.20
37806;DHT22;25082;50.870;0.022;2024-01-15T10:40:53;17.20;57.30
37806;DHT22;25082;50.870;0.022;2024-01-15T10:43:19;17.20;57.30
37806;DHT22;25082;50.870;0.022;2024-01-15T10:45:46;17.20;57.40
37806;DHT22;25082;50.870;0.022;2024-01-15T10:48:12;17.20;57.40
37806;DHT22;25082;50.870;0.022;2024-01-15T10:50:38;17.20;57.40
37806;DHT22;25082;50.870;0.022;2024-01-15T10:53:05;17.20;57.40
37806;DHT22;25082;50.870;0.022;2024-01-15T10:55:32;17.30;57.40
37806;DHT22;25082;50.870;0.022;2024-01-15T10:57:59;17.30;57.40
37806;DHT22;25082;50.870;0.022;2024-01-15T11:00:26;17.30;57.40
37806;DHT22;25082;50.870;0.022;2024-01-15T11:02:53;17.30;57.40
37806;DHT22;25082;50.870;0.022;2024-01-15T11:05:22;17.40;57.40
37806;DHT22;25082;50.870;0.022;2024-01-15T11:07:54;17.40;57.50
37806;DHT22;25082;50.870;0.022;2024-01-15T11:16:09;17.40;57.50
37806;DHT22;25082;50.870;0.022;2024-01-15T11:18:40;17.40;57.40
37806;DHT22;25082;50.870;0.022;2024-01-15T11:23:45;17.50;57.30
37806;DHT22;25082;50.870;0.022;2024-01-15T11:28:55;17.50;57.30
37806;DHT22;25082;50.870;0.022;2024-01-15T11:34:08;17.60;57.20
37806;DHT22;25082;50.870;0.022;2024-01-15T11:41:57;17.60;57.20
37806;DHT22;25082;50.870;0.022;2024-01-15T11:44:23;17.70;57.20
37806;DHT22;25082;50.870;0.022;2024-01-15T11:47:00;17.70;57.10
37806;DHT22;25082;50.870;0.022;2024-01-15T11:52:17;17.70;57.00
37806;DHT22;25082;50.870;0.022;2024-01-15T11:55:12;17.80;57.10
37806;DHT22;25082;50.870;0.022;2024-01-15T12:00:07;17.80;57.50
37806;DHT22;25082;50.870;0.022;2024-01-15T12:02:37;17.80;56.90
37806;DHT22;25082;50.870;0.022;2024-01-15T12:05:03;17.90;56.90
37806;DHT22;25082;50.870;0.022;2024-01-15T12:07:29;17.90;56.90
37806;DHT22;25082;50.870;0.022;2024-01-15T12:09:55;17.90;56.90
37806;DHT22;25082;50.870;0.022;2024-01-15T12:15:10;18.00;56.40
37806;DHT22;25082;50.870;0.022;2024-01-15T12:17:35;18.00;56.30
37806;DHT22;25082;50.870;0.022;2024-01-15T12:20:07;18.10;56.40
37806;DHT22;25082;50.870;0.022;2024-01-15T12:22:33;18.10;56.50
37806;DHT22;25082;50.870;0.022;2024-01-15T12:24:59;18.20;56.70
37806;DHT22;25082;50.870;0.022;2024-01-15T12:27:25;18.30;56.60
37806;DHT22;25082;50.870;0.022;2024-01-15T12:29:53;18.40;56.60
37806;DHT22;25082;50.870;0.022;2024-01-15T12:32:19;18.50;56.50
37806;DHT22;25082;50.870;0.022;2024-01-15T12:34:46;18.90;56.40
37806;DHT22;25082;50.870;0.022;2024-01-15T12:37:11;19.30;56.10
37806;DHT22;25082;50.870;0.022;2024-01-15T12:39:37;19.90;55.30
37806;DHT22;25082;50.870;0.022;2024-01-15T12:42:04;20.50;53.60
37806;DHT22;25082;50.870;0.022;2024-01-15T12:44:31;21.30;52.50
37806;DHT22;25082;50.870;0.022;2024-01-15T12:46:57;22.20;50.40
37806;DHT22;25082;50.870;0.022;2024-01-15T12:49:24;22.90;48.40
37806;DHT22;25082;50.870;0.022;2024-01-15T12:52:12;23.30;46.90
37806;DHT22;25082;50.870;0.022;2024-01-15T12:54:38;23.30;46.10
37806;DHT22;25082;50.870;0.022;2024-01-15T12:57:04;23.30;45.90
37806;DHT22;25082;50.870;0.022;2024-01-15T12:59:30;23.10;46.10
37806;DHT22;25082;50.870;0.022;2024-01-15T13:01:55;23.00;46.60
37806;DHT22;25082;50.870;0.022;2024-01-15T13:04:24;23.10;46.50
37806;DHT22;25082;50.870;0.022;2024-01-15T13:06:51;23.40;46.20
37806;DHT22;25082;50.870;0.022;2024-01-15T13:09:19;24.00;45.20
37806;DHT22;25082;50.870;0.022;2024-01-15T13:11:45;24.60;44.20
37806;DHT22;25082;50.870;0.022;2024-01-15T13:14:12;25.20;43.30
37806;DHT22;25082;50.870;0.022;2024-01-15T13:16:42;25.60;42.40
37806;DHT22;25082;50.870;0.022;2024-01-15T13:19:09;26.10;41.90
37806;DHT22;25082;50.870;0.022;2024-01-15T13:21:37;26.60;40.80
37806;DHT22;25082;50.870;0.022;2024-01-15T13:24:03;26.80;39.80
37806;DHT22;25082;50.870;0.022;2024-01-15T13:26:32;26.80;39.40
37806;DHT22;25082;50.870;0.022;2024-01-15T13:29:01;26.70;39.50
37806;DHT22;25082;50.870;0.022;2024-01-15T13:31:28;26.00;39.80
37806;DHT22;25082;50.870;0.022;2024-01-15T13:33:54;25.10;41.10
37806;DHT22;25082;50.870;0.022;2024-01-15T13:36:21;24.20;42.60
37806;DHT22;25082;50.870;0.022;2024-01-15T13:38:52;23.40;44.30
37806;DHT22;25082;50.870;0.022;2024-01-15T13:41:22;22.70;45.90
37806;DHT22;25082;50.870;0.022;2024-01-15T13:43:51;22.30;47.10
37806;DHT22;25082;50.870;0.022;2024-01-15T13:46:19;21.90;48.30
37806;DHT22;25082;50.870;0.022;2024-01-15T13:48:45;21.60;49.20
37806;DHT22;25082;50.870;0.022;2024-01-15T13:51:11;21.30;49.80
37806;DHT22;25082;50.870;0.022;2024-01-15T13:53:40;21.10;50.40
37806;DHT22;25082;50.870;0.022;2024-01-15T13:56:06;21.00;50.90
37806;DHT22;25082;50.870;0.022;2024-01-15T13:58:33;20.80;51.30
37806;DHT22;25082;50.870;0.022;2024-01-15T14:01:00;20.70;51.70
37806;DHT22;25082;50.870;0.022;2024-01-15T14:03:25;20.60;52.10
37806;DHT22;25082;50.870;0.022;2024-01-15T14:05:52;20.50;52.30
37806;DHT22;25082;50.870;0.022;2024-01-15T14:08:18;20.40;52.50
37806;DHT22;25082;50.870;0.022;2024-01-15T14:10:46;20.30;52.80
37806;DHT22;25082;50.870;0.022;2024-01-15T14:13:12;20.20;53.00
37806;DHT22;25082;50.870;0.022;2024-01-15T14:15:38;20.10;53.10
37806;DHT22;25082;50.870;0.022;2024-01-15T14:18:04;20.00;53.30
37806;DHT22;25082;50.870;0.022;2024-01-15T14:20:30;19.90;53.40
37806;DHT22;25082;50.870;0.022;2024-01-15T14:22:56;19.90;53.50
37806;DHT22;25082;50.870;0.022;2024-01-15T14:25:22;19.80;53.60
37806;DHT22;25082;50.870;0.022;2024-01-15T14:27:48;19.80;53.80
37806;DHT22;25082;50.870;0.022;2024-01-15T14:30:14;19.70;53.80
37806;DHT22;25082;50.870;0.022;2024-01-15T14:32:42;19.70;54.00
37806;DHT22;25082;50.870;0.022;2024-01-15T14:35:08;19.70;54.10
37806;DHT22;25082;50.870;0.022;2024-01-15T14:37:39;19.60;54.10
37806;DHT22;25082;50.870;0.022;2024-01-15T14:40:09;19.60;54.00
37806;DHT22;25082;50.870;0.022;2024-01-15T14:42:41;19.60;54.60
37806;DHT22;25082;50.870;0.022;2024-01-15T14:45:07;19.50;54.00
37806;DHT22;25082;50.870;0.022;2024-01-15T14:47:38;19.50;54.10
37806;DHT22;25082;50.870;0.022;2024-01-15T14:50:06;19.40;53.60
37806;DHT22;25082;50.870;0.022;2024-01-15T14:52:32;19.40;53.60
37806;DHT22;25082;50.870;0.022;2024-01-15T14:54:59;19.40;53.60
37806;DHT22;25082;50.870;0.022;2024-01-15T14:57:25;19.40;53.80
37806;DHT22;25082;50.870;0.022;2024-01-15T14:59:50;19.40;53.80
37806;DHT22;25082;50.870;0.022;2024-01-15T15:02:19;19.30;53.80
37806;DHT22;25082;50.870;0.022;2024-01-15T15:04:45;19.30;53.90
37806;DHT22;25082;50.870;0.022;2024-01-15T15:07:11;19.30;54.50
37806;DHT22;25082;50.870;0.022;2024-01-15T15:09:36;19.20;53.90
37806;DHT22;25082;50.870;0.022;2024-01-15T15:12:06;19.30;54.00
37806;DHT22;25082;50.870;0.022;2024-01-15T15:14:32;19.20;54.00
37806;DHT22;25082;50.870;0.022;2024-01-15T15:17:04;19.20;54.10
37806;DHT22;25082;50.870;0.022;2024-01-15T15:19:31;19.20;54.20
37806;DHT22;25082;50.870;0.022;2024-01-15T15:21:57;19.20;54.30
37806;DHT22;25082;50.870;0.022;2024-01-15T15:24:23;19.20;54.20
37806;DHT22;25082;50.870;0.022;2024-01-15T15:26:49;19.20;54.20
37806;DHT22;25082;50.870;0.022;2024-01-15T15:29:14;19.20;54.30
37806;DHT22;25082;50.870;0.022;2024-01-15T15:31:42;19.20;54.30
37806;DHT22;25082;50.870;0.022;2024-01-15T15:34:08;19.20;54.30
37806;DHT22;25082;50.870;0.022;2024-01-15T15:36:34;19.20;54.30
37806;DHT22;25082;50.870;0.022;2024-01-15T15:39:00;19.20;54.30
37806;DHT22;25082;50.870;0.022;2024-01-15T15:41:26;19.20;54.40
37806;DHT22;25082;50.870;0.022;2024-01-15T15:43:53;19.10;54.70
37806;DHT22;25082;50.870;0.022;2024-01-15T15:46:20;19.10;54.70
37806;DHT22;25082;50.870;0.022;2024-01-15T15:48:46;19.00;52.20
37806;DHT22;25082;50.870;0.022;2024-01-15T15:51:11;19.00;51.60
37806;DHT22;25082;50.870;0.022;2024-01-15T15:53:37;19.00;51.80